createdAt,value
2019-02-06T00:01:10.283Z,77.06
2019-02-06T00:03:39.512Z,77.12
2019-02-06T00:06:08.741Z,77.17
2019-02-06T00:08:37.969Z,77.28
2019-02-06T00:11:07.238Z,77.38
2019-02-06T00:13:36.467Z,77.53
2019-02-06T00:16:05.711Z,77.42
2019-02-06T00:18:35.061Z,77.43
2019-02-06T00:21:04.331Z,77.54
2019-02-06T00:23:33.646Z,77.44
2019-02-06T00:26:02.890Z,77.43
2019-02-06T00:28:32.471Z,77.52
2019-02-06T00:31:01.710Z,77.65
2019-02-06T00:33:30.937Z,77.66
2019-02-06T00:36:00.170Z,77.95
2019-02-06T00:38:29.359Z,78.00
2019-02-06T00:40:58.604Z,78.03
2019-02-06T00:43:28.235Z,78.29
2019-02-06T00:45:57.431Z,78.27
2019-02-06T00:48:26.660Z,78.23
2019-02-06T00:50:55.892Z,78.22
2019-02-06T00:53:25.086Z,78.43
2019-02-06T00:55:54.326Z,78.81
2019-02-06T00:58:23.805Z,79.54
2019-02-06T01:00:53.111Z,79.96
2019-02-06T01:03:22.333Z,79.82
2019-02-06T01:05:51.564Z,80.20
2019-02-06T01:08:20.767Z,80.69
2019-02-06T01:10:49.967Z,81.32
2019-02-06T01:13:19.592Z,81.90
2019-02-06T01:15:48.790Z,81.79
2019-02-06T01:18:19.088Z,82.44
2019-02-06T01:20:48.299Z,82.77
2019-02-06T01:23:17.549Z,83.62
2019-02-06T01:25:46.749Z,83.65
2019-02-06T01:28:16.028Z,83.99
2019-02-06T01:30:46.916Z,84.07
2019-02-06T01:33:16.177Z,84.20
2019-02-06T01:35:49.950Z,84.61
2019-02-06T01:38:16.321Z,85.38
2019-02-06T01:40:45.515Z,85.53
2019-02-06T01:43:14.752Z,85.80
2019-02-06T01:45:43.971Z,85.95
2019-02-06T01:48:13.171Z,86.51
2019-02-06T01:50:42.403Z,86.87
2019-02-06T01:53:11.607Z,87.06
2019-02-06T01:55:40.808Z,87.24
2019-02-06T01:58:10.034Z,87.17
2019-02-06T02:00:39.447Z,87.37
2019-02-06T02:03:09.729Z,87.39
2019-02-06T02:05:39.144Z,88.04
2019-02-06T02:08:08.327Z,88.04
2019-02-06T02:10:37.603Z,87.99
2019-02-06T02:13:06.853Z,87.91
2019-02-06T02:15:36.464Z,87.65
2019-02-06T02:18:05.770Z,88.05
2019-02-06T02:20:34.998Z,87.95
2019-02-06T02:23:04.363Z,88.02
2019-02-06T02:25:33.673Z,87.94
2019-02-06T02:28:02.911Z,88.30
2019-02-06T02:30:34.033Z,88.60
2019-02-06T02:33:04.160Z,88.84
2019-02-06T02:35:33.354Z,88.92
2019-02-06T02:38:02.897Z,89.15
2019-02-06T02:40:32.130Z,89.15
2019-02-06T02:43:01.358Z,89.27
2019-02-06T02:45:30.831Z,89.18
2019-02-06T02:48:00.083Z,89.33
2019-02-06T02:50:29.305Z,89.44
2019-02-06T02:52:58.529Z,89.55
2019-02-06T02:55:27.806Z,89.80
2019-02-06T02:57:57.003Z,90.00
2019-02-06T03:00:44.560Z,90.26
2019-02-06T03:03:15.391Z,90.40
2019-02-06T03:05:44.637Z,90.55
2019-02-06T03:08:13.863Z,90.49
2019-02-06T03:10:43.475Z,90.53
2019-02-06T03:13:12.674Z,90.50
2019-02-06T03:15:42.097Z,90.61
2019-02-06T03:18:11.291Z,90.79
2019-02-06T03:20:40.518Z,90.91
2019-02-06T03:23:09.759Z,90.88
2019-02-06T03:25:38.996Z,90.96
2019-02-06T03:28:08.278Z,90.99
2019-02-06T03:30:37.546Z,90.96
2019-02-06T03:33:06.802Z,90.87
2019-02-06T03:35:36.052Z,90.96
2019-02-06T03:38:05.253Z,90.94
2019-02-06T03:40:34.715Z,90.85
2019-02-06T03:43:04.199Z,90.89
2019-02-06T03:45:33.442Z,90.85
2019-02-06T03:48:02.656Z,90.91
2019-02-06T03:50:31.891Z,90.89
2019-02-06T03:53:01.187Z,90.88
2019-02-06T03:55:30.400Z,91.02
2019-02-06T03:57:59.975Z,91.00
2019-02-06T04:00:29.205Z,91.52
2019-02-06T04:02:58.399Z,91.71
2019-02-06T04:05:27.770Z,91.61
2019-02-06T04:07:56.997Z,91.41
2019-02-06T04:10:26.197Z,91.23
2019-02-06T04:12:55.671Z,91.00
2019-02-06T04:15:24.921Z,90.85
2019-02-06T04:17:54.638Z,90.76
2019-02-06T04:20:23.933Z,90.59
2019-02-06T04:22:53.163Z,90.05
2019-02-06T04:25:22.498Z,90.05
2019-02-06T04:27:52.071Z,89.88
2019-02-06T04:30:21.307Z,89.83
2019-02-06T04:32:50.525Z,89.76
2019-02-06T04:35:19.766Z,89.73
2019-02-06T04:37:48.966Z,89.79
2019-02-06T04:40:20.290Z,89.84
2019-02-06T04:42:49.877Z,89.86
2019-02-06T04:45:19.659Z,89.87
2019-02-06T04:47:48.865Z,90.00
2019-02-06T04:50:18.273Z,89.93
2019-02-06T04:52:47.518Z,89.96
2019-02-06T04:55:17.863Z,90.07
2019-02-06T04:57:47.571Z,89.99
2019-02-06T05:00:19.570Z,89.99
2019-02-06T05:02:49.794Z,90.00
2019-02-06T05:05:19.157Z,90.04
2019-02-06T05:07:48.406Z,90.11
2019-02-06T05:10:17.779Z,90.06
2019-02-06T05:12:47.496Z,89.93
2019-02-06T05:15:17.065Z,90.22
2019-02-06T05:17:46.301Z,90.12
2019-02-06T05:20:30.271Z,90.08
2019-02-06T05:22:59.528Z,90.15
2019-02-06T05:25:29.112Z,90.15
2019-02-06T05:27:58.342Z,90.38
2019-02-06T05:30:27.545Z,90.52
2019-02-06T05:32:56.744Z,90.58
2019-02-06T05:35:26.050Z,90.54
2019-02-06T05:37:55.285Z,90.71
2019-02-06T05:40:24.818Z,90.86
2019-02-06T05:42:54.043Z,90.84
2019-02-06T05:45:23.254Z,90.76
2019-02-06T05:47:52.485Z,91.02
2019-02-06T05:50:21.682Z,91.07
2019-02-06T05:52:51.129Z,91.21
2019-02-06T05:55:20.489Z,91.25
2019-02-06T05:57:49.747Z,91.39
2019-02-06T06:00:28.096Z,91.39
2019-02-06T06:02:57.319Z,91.43
2019-02-06T06:05:26.530Z,91.43
2019-02-06T06:07:55.726Z,91.65
2019-02-06T06:10:25.333Z,91.65
2019-02-06T06:12:54.567Z,91.71
2019-02-06T06:15:23.812Z,91.74
2019-02-06T06:17:53.011Z,91.75
2019-02-06T06:20:22.259Z,91.67
2019-02-06T06:22:51.452Z,91.56
2019-02-06T06:25:21.745Z,91.66
2019-02-06T06:27:51.480Z,91.61
2019-02-06T06:30:21.047Z,91.63
2019-02-06T06:32:50.294Z,91.77
2019-02-06T06:35:19.486Z,91.77
2019-02-06T06:37:57.598Z,91.75
2019-02-06T06:40:21.484Z,91.88
2019-02-06T06:42:50.906Z,91.84
2019-02-06T06:45:24.581Z,91.87
2019-02-06T06:47:53.884Z,91.80
2019-02-06T06:50:25.083Z,91.78
2019-02-06T06:52:54.342Z,91.77
2019-02-06T06:55:23.924Z,91.69
2019-02-06T06:57:53.188Z,91.69
2019-02-06T07:00:26.968Z,91.63
2019-02-06T07:02:56.219Z,91.58
2019-02-06T07:05:25.402Z,91.43
2019-02-06T07:07:54.648Z,91.23
2019-02-06T07:10:24.298Z,90.98
2019-02-06T07:12:53.567Z,90.66
2019-02-06T07:15:28.430Z,90.31
2019-02-06T07:17:57.764Z,89.84
2019-02-06T07:20:26.985Z,89.32
2019-02-06T07:22:56.222Z,88.82
2019-02-06T07:25:25.419Z,88.33
2019-02-06T07:27:54.726Z,87.83
2019-02-06T07:30:32.401Z,87.24
2019-02-06T07:33:01.755Z,86.74
2019-02-06T07:35:30.995Z,86.19
2019-02-06T07:38:00.744Z,85.54
2019-02-06T07:40:29.924Z,84.22
2019-02-06T07:42:59.119Z,84.22
2019-02-06T07:45:28.432Z,82.94
2019-02-06T07:47:57.785Z,82.70
2019-02-06T07:50:31.559Z,82.20
2019-02-06T07:53:01.001Z,81.89
2019-02-06T07:55:30.329Z,81.33
2019-02-06T07:57:59.530Z,81.11
2019-02-06T08:00:28.759Z,81.00
2019-02-06T08:02:58.318Z,81.23
2019-02-06T08:05:27.671Z,81.32
2019-02-06T08:07:57.326Z,80.91
2019-02-06T08:10:28.798Z,80.75
2019-02-06T08:12:58.891Z,80.14
2019-02-06T08:15:28.124Z,79.68
2019-02-06T08:17:57.359Z,79.28
2019-02-06T08:20:26.597Z,78.95
2019-02-06T08:22:56.066Z,78.92
2019-02-06T08:25:25.571Z,78.12
2019-02-06T08:27:54.778Z,78.14
2019-02-06T08:30:30.158Z,77.53
2019-02-06T08:32:59.398Z,76.45
2019-02-06T08:35:28.697Z,76.11
2019-02-06T08:37:57.890Z,75.35
2019-02-06T08:40:29.725Z,74.07
2019-02-06T08:42:58.923Z,73.02
2019-02-06T08:45:31.368Z,72.48
2019-02-06T08:48:00.619Z,70.93
2019-02-06T08:50:30.174Z,70.12
2019-02-06T08:52:59.415Z,69.34
2019-02-06T08:55:32.759Z,67.92
2019-02-06T08:58:02.237Z,67.35
2019-02-06T09:00:34.263Z,65.81
2019-02-06T09:03:04.679Z,65.35
2019-02-06T09:05:33.884Z,64.74
2019-02-06T09:08:04.162Z,63.71
2019-02-06T09:10:33.414Z,64.32
2019-02-06T09:13:02.646Z,64.46
2019-02-06T09:15:31.895Z,64.82
2019-02-06T09:18:01.107Z,64.62
2019-02-06T09:20:30.719Z,63.73
2019-02-06T09:22:59.924Z,64.18
2019-02-06T09:25:29.687Z,64.28
2019-02-06T09:27:59.026Z,64.26
2019-02-06T09:30:33.986Z,63.32
2019-02-06T09:33:04.933Z,63.67
2019-02-06T09:35:34.195Z,64.04
2019-02-06T09:38:04.180Z,63.48
2019-02-06T09:40:33.418Z,63.48
2019-02-06T09:43:02.629Z,63.81
2019-02-06T09:45:31.875Z,63.22
2019-02-06T09:48:01.074Z,63.30
2019-02-06T09:50:35.105Z,62.76
2019-02-06T09:53:05.693Z,62.91
2019-02-06T09:55:34.937Z,63.60
2019-02-06T09:58:04.420Z,63.01
2019-02-06T10:00:36.368Z,62.64
2019-02-06T10:03:06.249Z,62.10
2019-02-06T10:05:35.449Z,62.60
2019-02-06T10:08:04.831Z,62.15
2019-02-06T10:10:34.099Z,62.22
2019-02-06T10:13:04.101Z,61.83
2019-02-06T10:15:38.082Z,62.07
2019-02-06T10:18:07.520Z,61.77
2019-02-06T10:20:39.305Z,61.73
2019-02-06T10:23:08.631Z,61.19
2019-02-06T10:25:37.875Z,60.60
2019-02-06T10:28:07.082Z,60.74
2019-02-06T10:30:44.831Z,60.52
2019-02-06T10:33:14.037Z,59.82
2019-02-06T10:35:43.274Z,60.18
2019-02-06T10:38:12.599Z,60.00
2019-02-06T10:40:41.808Z,59.11
2019-02-06T10:43:11.052Z,59.41
2019-02-06T10:45:40.590Z,59.15
2019-02-06T10:48:09.793Z,59.92
2019-02-06T10:50:42.070Z,59.92
2019-02-06T10:53:11.275Z,59.41
2019-02-06T10:55:40.508Z,59.39
2019-02-06T10:58:09.711Z,59.39
2019-02-06T11:00:49.409Z,59.00
2019-02-06T11:03:18.612Z,58.61
2019-02-06T11:05:47.854Z,59.03
2019-02-06T11:08:17.093Z,58.21
2019-02-06T11:10:46.357Z,57.93
2019-02-06T11:13:15.882Z,59.10
2019-02-06T11:15:45.126Z,58.68
2019-02-06T11:18:14.452Z,58.96
2019-02-06T11:20:43.826Z,59.59
2019-02-06T11:23:13.813Z,59.00
2019-02-06T11:25:43.000Z,58.90
2019-02-06T11:28:12.630Z,59.28
2019-02-06T11:30:41.835Z,58.62
2019-02-06T11:33:12.254Z,59.43
2019-02-06T11:35:41.488Z,59.31
2019-02-06T11:38:10.691Z,58.83
2019-02-06T11:40:40.052Z,59.00
2019-02-06T11:43:09.532Z,59.53
2019-02-06T11:45:38.814Z,59.28
2019-02-06T11:48:08.023Z,58.87
2019-02-06T11:50:44.136Z,59.41
2019-02-06T11:53:15.670Z,58.90
2019-02-06T11:55:45.087Z,58.87
2019-02-06T11:58:14.297Z,58.97
2019-02-06T12:00:48.339Z,59.17
2019-02-06T12:03:16.387Z,59.17
2019-02-06T12:05:45.653Z,58.03
2019-02-06T12:08:14.868Z,56.74
2019-02-06T12:10:44.233Z,56.00
2019-02-06T12:13:14.501Z,55.97
2019-02-06T12:15:43.736Z,55.25
2019-02-06T12:18:12.976Z,54.51
2019-02-06T12:20:42.194Z,53.86
2019-02-06T12:23:11.434Z,53.54
2019-02-06T12:25:40.630Z,53.56
2019-02-06T12:28:09.913Z,54.20
2019-02-06T12:30:42.184Z,54.12
2019-02-06T12:33:11.382Z,53.66
2019-02-06T12:35:40.623Z,53.17
2019-02-06T12:38:09.829Z,52.97
2019-02-06T12:40:40.046Z,52.99
2019-02-06T12:43:10.514Z,53.02
2019-02-06T12:45:40.009Z,52.58
2019-02-06T12:48:09.173Z,52.30
2019-02-06T12:50:38.547Z,52.65
2019-02-06T12:53:07.967Z,52.99
2019-02-06T12:55:39.260Z,52.87
2019-02-06T12:58:09.110Z,52.65
2019-02-06T13:00:43.073Z,52.17
2019-02-06T13:03:13.294Z,51.72
2019-02-06T13:05:42.539Z,52.25
2019-02-06T13:08:11.742Z,51.62
2019-02-06T13:10:41.024Z,51.75
2019-02-06T13:13:10.275Z,52.18
2019-02-06T13:15:39.761Z,52.23
2019-02-06T13:18:09.006Z,51.92
2019-02-06T13:20:38.280Z,51.97
2019-02-06T13:23:07.485Z,51.61
2019-02-06T13:25:36.695Z,51.56
2019-02-06T13:28:05.952Z,51.67
2019-02-06T13:30:37.013Z,51.42
2019-02-06T13:33:07.571Z,51.09
2019-02-06T13:35:37.647Z,51.34
2019-02-06T13:38:06.855Z,51.67
2019-02-06T13:40:45.041Z,51.88
2019-02-06T13:43:07.043Z,51.90
2019-02-06T13:45:42.782Z,51.77
2019-02-06T13:48:12.083Z,51.76
2019-02-06T13:50:41.281Z,51.54
2019-02-06T13:53:10.716Z,52.08
2019-02-06T13:55:40.035Z,51.89
2019-02-06T13:58:19.792Z,52.13
2019-02-06T14:00:41.782Z,51.69
2019-02-06T14:03:11.033Z,51.82
2019-02-06T14:05:40.238Z,52.26
2019-02-06T14:08:11.720Z,51.97
2019-02-06T14:10:41.006Z,52.32
2019-02-06T14:13:10.480Z,52.68
2019-02-06T14:15:41.788Z,52.91
2019-02-06T14:18:11.359Z,52.37
2019-02-06T14:20:41.148Z,52.64
2019-02-06T14:23:15.972Z,52.68
2019-02-06T14:26:14.062Z,53.34
2019-02-06T14:29:03.498Z,53.67
2019-02-06T14:31:41.284Z,54.20
2019-02-06T14:34:30.300Z,54.23
2019-02-06T14:37:11.580Z,53.62
2019-02-06T14:39:53.384Z,53.97
2019-02-06T14:42:41.012Z,53.99
2019-02-06T14:45:47.077Z,53.81
2019-02-06T14:48:25.291Z,53.59
2019-02-06T14:51:06.854Z,53.54
2019-02-06T14:53:51.288Z,54.26
2019-02-06T14:56:41.739Z,53.99
2019-02-06T14:59:26.059Z,54.02
2019-02-06T15:02:22.734Z,54.44
2019-02-06T15:04:58.119Z,54.43
2019-02-06T15:07:30.617Z,54.77
2019-02-06T15:10:33.475Z,54.77
2019-02-06T15:13:12.327Z,54.73
2019-02-06T15:16:02.968Z,54.58
2019-02-06T15:18:56.259Z,54.85
2019-02-06T15:21:40.826Z,54.98
2019-02-06T15:24:16.529Z,54.47
2019-02-06T15:26:51.771Z,54.59
2019-02-06T15:29:36.427Z,54.67
2019-02-06T15:32:24.206Z,54.59
2019-02-06T15:34:56.681Z,54.68
2019-02-06T15:37:37.986Z,54.87
2019-02-06T15:40:25.786Z,54.59
2019-02-06T15:43:22.363Z,54.96
2019-02-06T15:46:15.979Z,54.70
2019-02-06T15:49:17.461Z,54.69
2019-02-06T15:51:55.842Z,54.61
2019-02-06T15:54:49.800Z,55.15
2019-02-06T15:57:52.108Z,55.11
2019-02-06T16:00:39.568Z,55.15
2019-02-06T16:03:26.201Z,55.70
2019-02-06T16:06:03.057Z,55.77
2019-02-06T16:08:35.512Z,56.37
2019-02-06T16:11:26.355Z,56.55
2019-02-06T16:14:14.017Z,57.07
2019-02-06T16:17:04.479Z,57.35
2019-02-06T16:19:42.952Z,57.82
2019-02-06T16:22:32.134Z,58.03
2019-02-06T16:25:04.645Z,58.32
2019-02-06T16:27:40.123Z,58.48
2019-02-06T16:30:12.614Z,58.82
2019-02-06T16:32:57.194Z,59.19
2019-02-06T16:35:51.524Z,58.63
2019-02-06T16:38:33.425Z,59.06
2019-02-06T16:41:08.715Z,59.50
2019-02-06T16:43:44.602Z,59.01
2019-02-06T16:46:35.021Z,58.81
2019-02-06T16:49:19.783Z,58.54
2019-02-06T16:52:01.175Z,57.96
2019-02-06T16:54:52.738Z,58.33
2019-02-06T16:57:34.484Z,58.63
2019-02-06T17:00:13.062Z,58.58
2019-02-06T17:02:45.751Z,58.67
2019-02-06T17:05:37.604Z,58.53
2019-02-06T17:08:13.564Z,58.24
2019-02-06T17:10:46.054Z,58.35
2019-02-06T17:13:37.821Z,58.69
2019-02-06T17:16:22.523Z,57.96
2019-02-06T17:19:07.048Z,58.25
2019-02-06T17:21:57.884Z,57.94
2019-02-06T17:24:48.547Z,57.68
2019-02-06T17:27:32.555Z,56.96
2019-02-06T17:30:19.342Z,57.06
2019-02-06T17:33:09.870Z,57.59
2019-02-06T17:36:00.387Z,57.47
2019-02-06T17:38:44.916Z,57.23
2019-02-06T17:41:19.979Z,57.16
2019-02-06T17:44:09.123Z,57.42
2019-02-06T17:46:57.746Z,57.05
2019-02-06T17:49:30.244Z,57.71
2019-02-06T17:52:20.874Z,57.98
2019-02-06T17:54:56.162Z,58.13
2019-02-06T17:57:25.389Z,57.64
2019-02-06T17:59:54.636Z,57.04
2019-02-06T18:02:24.259Z,56.62
2019-02-06T18:04:53.511Z,55.98
2019-02-06T18:07:22.743Z,55.45
2019-02-06T18:09:51.970Z,56.03
2019-02-06T18:12:26.346Z,56.03
2019-02-06T18:14:52.137Z,56.23
2019-02-06T18:17:21.383Z,56.57
2019-02-06T18:19:50.585Z,56.87
2019-02-06T18:22:22.441Z,57.03
2019-02-06T18:24:50.754Z,56.70
2019-02-06T18:27:20.009Z,56.51
2019-02-06T18:29:49.203Z,56.08
2019-02-06T18:32:18.821Z,56.24
2019-02-06T18:34:48.084Z,55.85
2019-02-06T18:37:17.423Z,55.86
2019-02-06T18:39:46.701Z,55.49
2019-02-06T18:42:15.932Z,55.47
2019-02-06T18:44:45.133Z,54.87
2019-02-06T18:47:14.389Z,54.66
2019-02-06T18:49:43.921Z,54.66
2019-02-06T18:52:20.227Z,54.48
2019-02-06T18:54:44.060Z,54.11
2019-02-06T18:57:13.623Z,54.50
2019-02-06T18:59:42.929Z,54.63
2019-02-06T19:02:12.210Z,54.47
2019-02-06T19:04:41.494Z,54.23
2019-02-06T19:07:10.753Z,53.93
2019-02-06T19:09:40.255Z,53.73
2019-02-06T19:12:09.510Z,53.55
2019-02-06T19:14:38.708Z,53.55
2019-02-06T19:17:08.039Z,54.24
2019-02-06T19:19:37.250Z,54.51
2019-02-06T19:22:06.516Z,54.25
2019-02-06T19:24:35.779Z,53.43
2019-02-06T19:27:06.883Z,53.46
2019-02-06T19:29:36.083Z,53.28
2019-02-06T19:32:05.371Z,53.34
2019-02-06T19:34:34.571Z,53.24
2019-02-06T19:37:04.156Z,53.89
2019-02-06T19:39:33.751Z,53.75
2019-02-06T19:42:03.059Z,54.14
2019-02-06T19:44:32.533Z,53.88
2019-02-06T19:47:03.157Z,54.23
2019-02-06T19:49:32.363Z,53.96
2019-02-06T19:52:01.722Z,53.76
2019-02-06T19:54:32.066Z,53.68
2019-02-06T19:57:01.489Z,53.43
2019-02-06T19:59:31.078Z,53.54
2019-02-06T20:02:00.436Z,54.06
2019-02-06T20:04:29.740Z,54.21
2019-02-06T20:06:59.177Z,54.59
2019-02-06T20:09:30.328Z,54.29
2019-02-06T20:11:59.475Z,54.41
2019-02-06T20:14:28.725Z,54.75
2019-02-06T20:16:57.998Z,54.85
2019-02-06T20:19:27.391Z,54.33
2019-02-06T20:21:57.879Z,54.44
2019-02-06T20:24:27.224Z,54.46
2019-02-06T20:26:56.678Z,53.70
2019-02-06T20:29:27.915Z,53.19
2019-02-06T20:31:57.678Z,52.68
2019-02-06T20:34:27.240Z,52.81
2019-02-06T20:36:56.536Z,52.36
2019-02-06T20:39:26.247Z,52.38
2019-02-06T20:41:55.564Z,52.22
2019-02-06T20:44:24.982Z,51.89
2019-02-06T20:46:55.888Z,52.08
2019-02-06T20:49:25.198Z,51.91
2019-02-06T20:51:55.568Z,51.92
2019-02-06T20:54:24.945Z,51.85
2019-02-06T20:56:54.184Z,52.12
2019-02-06T20:59:23.470Z,52.19
2019-02-06T21:28:27.504Z,32.20
2019-02-06T21:31:04.525Z,30.49
2019-02-06T21:33:43.574Z,33.70
2019-02-06T21:36:14.246Z,35.89
2019-02-06T21:38:43.599Z,38.07
2019-02-06T21:44:03.076Z,42.16
2019-02-06T21:46:35.835Z,43.59
2019-02-06T21:49:05.080Z,44.44
2019-02-06T21:51:38.678Z,45.16
2019-02-06T21:54:08.224Z,45.61
2019-02-06T21:56:39.058Z,46.39
2019-02-06T21:59:13.137Z,47.19
2019-02-06T22:01:42.487Z,47.57
2019-02-06T22:04:12.904Z,48.25
2019-02-06T22:06:42.332Z,48.44
2019-02-06T22:09:13.209Z,49.01
2019-02-06T22:11:42.456Z,49.09
2019-02-06T22:14:12.073Z,49.25
2019-02-06T22:16:41.309Z,49.42
2019-02-06T22:19:10.521Z,49.59
2019-02-06T22:21:39.798Z,50.01
2019-02-06T22:24:09.098Z,49.95
2019-02-06T22:26:38.400Z,50.50
2019-02-06T22:29:07.689Z,50.51
2019-02-06T22:31:36.867Z,50.49
2019-02-06T22:34:06.133Z,50.84
2019-02-06T22:36:35.664Z,50.96
2019-02-06T22:39:08.189Z,51.08
2019-02-06T22:41:37.386Z,50.94
2019-02-06T22:44:07.025Z,50.94
2019-02-06T22:46:36.221Z,51.22
2019-02-06T22:49:05.474Z,51.28
2019-02-06T22:51:36.388Z,51.16
2019-02-06T22:54:05.655Z,51.18
2019-02-06T22:56:34.912Z,51.30
2019-02-06T22:59:04.156Z,51.54
2019-02-06T23:01:33.490Z,51.50
2019-02-06T23:04:03.221Z,51.51
2019-02-06T23:06:32.420Z,51.54
2019-02-06T23:09:01.721Z,51.47
2019-02-06T23:11:32.831Z,51.65
2019-02-06T23:14:02.166Z,51.46
2019-02-06T23:16:31.431Z,51.41
2019-02-06T23:19:01.970Z,51.23
2019-02-06T23:21:31.565Z,51.38
2019-02-06T23:24:00.776Z,51.30
2019-02-06T23:26:29.974Z,51.19
2019-02-06T23:28:59.232Z,50.91
2019-02-06T23:31:28.502Z,51.04
2019-02-06T23:33:58.066Z,50.98
2019-02-06T23:36:27.360Z,50.88
2019-02-06T23:38:56.555Z,50.69
2019-02-06T23:41:25.857Z,50.53
2019-02-06T23:43:55.166Z,50.54
2019-02-06T23:46:24.677Z,50.25
2019-02-06T23:48:54.067Z,50.30
2019-02-06T23:51:23.283Z,50.24
2019-02-06T23:53:52.611Z,50.22
2019-02-06T23:56:21.812Z,50.29
2019-02-06T23:58:51.067Z,50.32
